sensor_id;sensor_type;location;lat;lon;timestamp;P1;durP1;ratioP1;P2;durP2;ratioP2
15055;SDS011;7626;42.674;23.284;2024-01-15T00:00:23;41.67;;;26.17;;
15055;SDS011;7626;42.674;23.284;2024-01-15T00:02:50;43.30;;;25.93;;
15055;SDS011;7626;42.674;23.284;2024-01-15T00:05:16;46.97;;;27.67;;
15055;SDS011;7626;42.674;23.284;2024-01-15T00:07:43;44.20;;;27.53;;
15055;SDS011;7626;42.674;23.284;2024-01-15T00:10:10;43.40;;;27.03;;
15055;SDS011;7626;42.674;23.284;2024-01-15T00:12:37;41.63;;;26.00;;
15055;SDS011;7626;42.674;23.284;2024-01-15T00:15:04;43.47;;;28.27;;
15055;SDS011;7626;42.674;23.284;2024-01-15T00:17:33;42.50;;;26.33;;
15055;SDS011;7626;42.674;23.284;2024-01-15T00:20:00;41.70;;;27.63;;
15055;SDS011;7626;42.674;23.284;2024-01-15T00:22:27;42.00;;;26.57;;
15055;SDS011;7626;42.674;23.284;2024-01-15T00:24:54;44.30;;;28.30;;
15055;SDS011;7626;42.674;23.284;2024-01-15T00:27:21;43.00;;;26.80;;
15055;SDS011;7626;42.674;23.284;2024-01-15T00:29:48;43.37;;;25.90;;
15055;SDS011;7626;42.674;23.284;2024-01-15T00:32:17;42.00;;;26.63;;
15055;SDS011;7626;42.674;23.284;2024-01-15T00:34:45;43.10;;;27.13;;
15055;SDS011;7626;42.674;23.284;2024-01-15T00:37:12;37.87;;;24.73;;
15055;SDS011;7626;42.674;23.284;2024-01-15T00:39:39;42.33;;;26.83;;
15055;SDS011;7626;42.674;23.284;2024-01-15T00:42:07;38.10;;;26.87;;
15055;SDS011;7626;42.674;23.284;2024-01-15T00:44:35;46.63;;;27.47;;
15055;SDS011;7626;42.674;23.284;2024-01-15T00:47:02;44.57;;;26.97;;
15055;SDS011;7626;42.674;23.284;2024-01-15T00:49:29;44.37;;;27.17;;
15055;SDS011;7626;42.674;23.284;2024-01-15T00:51:57;46.70;;;28.93;;
15055;SDS011;7626;42.674;23.284;2024-01-15T00:54:24;46.57;;;28.10;;
15055;SDS011;7626;42.674;23.284;2024-01-15T00:56:51;45.27;;;27.97;;
15055;SDS011;7626;42.674;23.284;2024-01-15T00:59:18;45.80;;;28.73;;
15055;SDS011;7626;42.674;23.284;2024-01-15T01:01:45;46.13;;;28.13;;
15055;SDS011;7626;42.674;23.284;2024-01-15T01:04:13;42.47;;;28.20;;
15055;SDS011;7626;42.674;23.284;2024-01-15T01:06:40;46.27;;;28.30;;
15055;SDS011;7626;42.674;23.284;2024-01-15T01:09:08;46.37;;;29.07;;
15055;SDS011;7626;42.674;23.284;2024-01-15T01:11:35;40.87;;;27.13;;
15055;SDS011;7626;42.674;23.284;2024-01-15T01:14:02;44.43;;;27.50;;
15055;SDS011;7626;42.674;23.284;2024-01-15T01:16:29;44.33;;;28.17;;
15055;SDS011;7626;42.674;23.284;2024-01-15T01:18:56;44.90;;;28.27;;
15055;SDS011;7626;42.674;23.284;2024-01-15T01:21:23;47.47;;;27.47;;
15055;SDS011;7626;42.674;23.284;2024-01-15T01:23:50;42.87;;;27.07;;
15055;SDS011;7626;42.674;23.284;2024-01-15T01:26:18;46.13;;;27.40;;
15055;SDS011;7626;42.674;23.284;2024-01-15T01:28:45;43.00;;;26.87;;
15055;SDS011;7626;42.674;23.284;2024-01-15T01:31:12;41.80;;;26.97;;
15055;SDS011;7626;42.674;23.284;2024-01-15T01:33:39;42.47;;;26.70;;
15055;SDS011;7626;42.674;23.284;2024-01-15T01:36:07;41.13;;;25.37;;
15055;SDS011;7626;42.674;23.284;2024-01-15T01:38:34;41.87;;;24.33;;
15055;SDS011;7626;42.674;23.284;2024-01-15T01:41:01;37.13;;;24.17;;
15055;SDS011;7626;42.674;23.284;2024-01-15T01:43:30;38.53;;;24.73;;
15055;SDS011;7626;42.674;23.284;2024-01-15T01:45:57;41.23;;;25.13;;
15055;SDS011;7626;42.674;23.284;2024-01-15T01:48:24;38.73;;;24.23;;
15055;SDS011;7626;42.674;23.284;2024-01-15T01:50:52;41.73;;;24.47;;
15055;SDS011;7626;42.674;23.284;2024-01-15T01:53:21;36.70;;;24.30;;
15055;SDS011;7626;42.674;23.284;2024-01-15T01:55:48;36.70;;;23.90;;
15055;SDS011;7626;42.674;23.284;2024-01-15T01:58:16;38.67;;;23.77;;
15055;SDS011;7626;42.674;23.284;2024-01-15T02:00:45;36.07;;;24.20;;
15055;SDS011;7626;42.674;23.284;2024-01-15T02:03:13;35.47;;;22.63;;
15055;SDS011;7626;42.674;23.284;2024-01-15T02:05:40;34.13;;;22.10;;
15055;SDS011;7626;42.674;23.284;2024-01-15T02:08:09;36.03;;;22.97;;
15055;SDS011;7626;42.674;23.284;2024-01-15T02:10:36;34.90;;;21.63;;
15055;SDS011;7626;42.674;23.284;2024-01-15T02:13:03;33.47;;;22.33;;
15055;SDS011;7626;42.674;23.284;2024-01-15T02:15:30;32.97;;;21.63;;
15055;SDS011;7626;42.674;23.284;2024-01-15T02:17:59;32.83;;;21.33;;
15055;SDS011;7626;42.674;23.284;2024-01-15T02:20:27;35.77;;;22.03;;
15055;SDS011;7626;42.674;23.284;2024-01-15T02:23:01;33.83;;;21.03;;
15055;SDS011;7626;42.674;23.284;2024-01-15T02:25:34;33.73;;;21.57;;
15055;SDS011;7626;42.674;23.284;2024-01-15T02:28:02;32.40;;;20.90;;
15055;SDS011;7626;42.674;23.284;2024-01-15T02:30:29;33.23;;;20.20;;
15055;SDS011;7626;42.674;23.284;2024-01-15T02:32:57;30.33;;;20.03;;
15055;SDS011;7626;42.674;23.284;2024-01-15T02:35:24;34.03;;;19.87;;
15055;SDS011;7626;42.674;23.284;2024-01-15T02:37:51;30.40;;;19.33;;
15055;SDS011;7626;42.674;23.284;2024-01-15T02:40:19;31.60;;;19.47;;
15055;SDS011;7626;42.674;23.284;2024-01-15T02:42:46;28.17;;;19.17;;
15055;SDS011;7626;42.674;23.284;2024-01-15T02:45:13;30.13;;;17.70;;
15055;SDS011;7626;42.674;23.284;2024-01-15T02:47:40;28.70;;;18.23;;
15055;SDS011;7626;42.674;23.284;2024-01-15T02:50:07;29.63;;;17.77;;
15055;SDS011;7626;42.674;23.284;2024-01-15T02:52:34;29.93;;;19.07;;
15055;SDS011;7626;42.674;23.284;2024-01-15T02:55:01;30.47;;;18.03;;
15055;SDS011;7626;42.674;23.284;2024-01-15T02:57:30;29.90;;;18.70;;
15055;SDS011;7626;42.674;23.284;2024-01-15T02:59:57;32.17;;;19.10;;
15055;SDS011;7626;42.674;23.284;2024-01-15T03:02:23;25.23;;;17.00;;
15055;SDS011;7626;42.674;23.284;2024-01-15T03:04:50;29.83;;;19.03;;
15055;SDS011;7626;42.674;23.284;2024-01-15T03:07:17;29.63;;;19.03;;
15055;SDS011;7626;42.674;23.284;2024-01-15T03:09:44;29.70;;;18.80;;
15055;SDS011;7626;42.674;23.284;2024-01-15T03:12:11;28.27;;;18.57;;
15055;SDS011;7626;42.674;23.284;2024-01-15T03:14:39;29.23;;;18.87;;
15055;SDS011;7626;42.674;23.284;2024-01-15T03:17:06;31.07;;;18.80;;
15055;SDS011;7626;42.674;23.284;2024-01-15T03:19:35;29.37;;;19.37;;
15055;SDS011;7626;42.674;23.284;2024-01-15T03:22:02;30.83;;;19.37;;
15055;SDS011;7626;42.674;23.284;2024-01-15T03:24:29;32.03;;;19.20;;
15055;SDS011;7626;42.674;23.284;2024-01-15T03:26:58;30.13;;;19.80;;
15055;SDS011;7626;42.674;23.284;2024-01-15T03:29:25;30.50;;;19.23;;
15055;SDS011;7626;42.674;23.284;2024-01-15T03:31:54;31.43;;;18.97;;
15055;SDS011;7626;42.674;23.284;2024-01-15T03:34:21;31.70;;;19.30;;
15055;SDS011;7626;42.674;23.284;2024-01-15T03:36:47;28.93;;;19.23;;
15055;SDS011;7626;42.674;23.284;2024-01-15T03:39:14;30.63;;;20.17;;
15055;SDS011;7626;42.674;23.284;2024-01-15T03:41:41;32.73;;;20.67;;
15055;SDS011;7626;42.674;23.284;2024-01-15T03:44:08;30.43;;;19.33;;
15055;SDS011;7626;42.674;23.284;2024-01-15T03:46:35;34.30;;;19.77;;
15055;SDS011;7626;42.674;23.284;2024-01-15T03:49:03;34.77;;;21.60;;
15055;SDS011;7626;42.674;23.284;2024-01-15T03:51:30;32.73;;;22.10;;
15055;SDS011;7626;42.674;23.284;2024-01-15T03:53:57;33.20;;;21.23;;
15055;SDS011;7626;42.674;23.284;2024-01-15T03:56:24;35.33;;;22.90;;
15055;SDS011;7626;42.674;23.284;2024-01-15T03:58:51;36.23;;;22.80;;
15055;SDS011;7626;42.674;23.284;2024-01-15T04:01:18;39.23;;;25.47;;
15055;SDS011;7626;42.674;23.284;2024-01-15T04:03:44;40.30;;;25.03;;
15055;SDS011;7626;42.674;23.284;2024-01-15T04:06:13;40.33;;;27.07;;
15055;SDS011;7626;42.674;23.284;2024-01-15T04:08:40;44.03;;;27.07;;
15055;SDS011;7626;42.674;23.284;2024-01-15T04:11:06;41.93;;;26.50;;
15055;SDS011;7626;42.674;23.284;2024-01-15T04:13:33;47.50;;;28.23;;
15055;SDS011;7626;42.674;23.284;2024-01-15T04:16:00;47.90;;;28.80;;
15055;SDS011;7626;42.674;23.284;2024-01-15T04:18:28;44.77;;;28.77;;
15055;SDS011;7626;42.674;23.284;2024-01-15T04:20:55;48.23;;;29.43;;
15055;SDS011;7626;42.674;23.284;2024-01-15T04:23:23;49.37;;;30.40;;
15055;SDS011;7626;42.674;23.284;2024-01-15T04:25:50;54.73;;;33.77;;
15055;SDS011;7626;42.674;23.284;2024-01-15T04:28:17;54.60;;;33.07;;
15055;SDS011;7626;42.674;23.284;2024-01-15T04:30:44;54.33;;;35.10;;
15055;SDS011;7626;42.674;23.284;2024-01-15T04:33:11;59.03;;;38.47;;
15055;SDS011;7626;42.674;23.284;2024-01-15T04:35:38;60.63;;;37.80;;
15055;SDS011;7626;42.674;23.284;2024-01-15T04:38:05;61.63;;;38.20;;
15055;SDS011;7626;42.674;23.284;2024-01-15T04:40:33;64.90;;;40.57;;
15055;SDS011;7626;42.674;23.284;2024-01-15T04:43:00;65.03;;;41.23;;
15055;SDS011;7626;42.674;23.284;2024-01-15T04:45:27;71.47;;;42.73;;
15055;SDS011;7626;42.674;23.284;2024-01-15T04:47:55;68.73;;;44.23;;
15055;SDS011;7626;42.674;23.284;2024-01-15T04:50:23;73.83;;;44.77;;
15055;SDS011;7626;42.674;23.284;2024-01-15T04:52:50;73.73;;;45.00;;
15055;SDS011;7626;42.674;23.284;2024-01-15T04:55:17;73.00;;;43.77;;
15055;SDS011;7626;42.674;23.284;2024-01-15T04:57:45;71.40;;;43.63;;
15055;SDS011;7626;42.674;23.284;2024-01-15T05:00:12;69.83;;;45.53;;
15055;SDS011;7626;42.674;23.284;2024-01-15T05:02:40;73.50;;;44.90;;
15055;SDS011;7626;42.674;23.284;2024-01-15T05:05:07;74.97;;;46.53;;
15055;SDS011;7626;42.674;23.284;2024-01-15T05:07:34;75.93;;;45.37;;
15055;SDS011;7626;42.674;23.284;2024-01-15T05:10:01;77.30;;;47.07;;
15055;SDS011;7626;42.674;23.284;2024-01-15T05:12:28;77.23;;;46.60;;
15055;SDS011;7626;42.674;23.284;2024-01-15T05:14:57;79.10;;;46.07;;
15055;SDS011;7626;42.674;23.284;2024-01-15T05:17:24;77.13;;;47.47;;
15055;SDS011;7626;42.674;23.284;2024-01-15T05:19:51;78.13;;;47.00;;
15055;SDS011;7626;42.674;23.284;2024-01-15T05:22:18;75.87;;;47.77;;
15055;SDS011;7626;42.674;23.284;2024-01-15T05:24:46;80.00;;;47.97;;
15055;SDS011;7626;42.674;23.284;2024-01-15T05:27:13;83.90;;;50.80;;
15055;SDS011;7626;42.674;23.284;2024-01-15T05:29:40;82.60;;;49.87;;
15055;SDS011;7626;42.674;23.284;2024-01-15T05:32:08;83.13;;;49.93;;
15055;SDS011;7626;42.674;23.284;2024-01-15T05:34:35;87.57;;;52.83;;
15055;SDS011;7626;42.674;23.284;2024-01-15T05:37:02;85.03;;;52.43;;
15055;SDS011;7626;42.674;23.284;2024-01-15T05:39:29;79.03;;;48.63;;
15055;SDS011;7626;42.674;23.284;2024-01-15T05:41:56;83.67;;;50.17;;
15055;SDS011;7626;42.674;23.284;2024-01-15T05:44:24;86.37;;;51.73;;
15055;SDS011;7626;42.674;23.284;2024-01-15T05:46:52;87.90;;;51.00;;
15055;SDS011;7626;42.674;23.284;2024-01-15T05:49:21;83.60;;;49.63;;
15055;SDS011;7626;42.674;23.284;2024-01-15T05:51:48;81.00;;;49.20;;
15055;SDS011;7626;42.674;23.284;2024-01-15T05:54:15;84.03;;;49.40;;
15055;SDS011;7626;42.674;23.284;2024-01-15T05:56:42;88.13;;;52.40;;
15055;SDS011;7626;42.674;23.284;2024-01-15T05:59:09;84.77;;;51.80;;
15055;SDS011;7626;42.674;23.284;2024-01-15T06:01:36;84.40;;;51.87;;
15055;SDS011;7626;42.674;23.284;2024-01-15T06:04:03;89.60;;;53.23;;
15055;SDS011;7626;42.674;23.284;2024-01-15T06:06:31;84.50;;;50.00;;
15055;SDS011;7626;42.674;23.284;2024-01-15T06:08:58;80.83;;;51.03;;
15055;SDS011;7626;42.674;23.284;2024-01-15T06:11:30;82.50;;;49.10;;
15055;SDS011;7626;42.674;23.284;2024-01-15T06:13:57;78.97;;;48.90;;
15055;SDS011;7626;42.674;23.284;2024-01-15T06:16:24;78.10;;;48.70;;
15055;SDS011;7626;42.674;23.284;2024-01-15T06:18:51;77.47;;;47.83;;
15055;SDS011;7626;42.674;23.284;2024-01-15T06:21:18;79.67;;;50.80;;
15055;SDS011;7626;42.674;23.284;2024-01-15T06:23:46;78.27;;;47.53;;
15055;SDS011;7626;42.674;23.284;2024-01-15T06:26:13;76.33;;;48.17;;
15055;SDS011;7626;42.674;23.284;2024-01-15T06:28:40;78.50;;;47.00;;
15055;SDS011;7626;42.674;23.284;2024-01-15T06:31:07;76.40;;;46.00;;
15055;SDS011;7626;42.674;23.284;2024-01-15T06:33:34;80.23;;;47.03;;
15055;SDS011;7626;42.674;23.284;2024-01-15T06:36:01;73.20;;;45.53;;
15055;SDS011;7626;42.674;23.284;2024-01-15T06:38:27;72.33;;;46.20;;
15055;SDS011;7626;42.674;23.284;2024-01-15T06:40:56;73.53;;;47.80;;
15055;SDS011;7626;42.674;23.284;2024-01-15T06:43:23;76.07;;;47.90;;
15055;SDS011;7626;42.674;23.284;2024-01-15T06:45:50;74.33;;;47.10;;
15055;SDS011;7626;42.674;23.284;2024-01-15T06:48:16;84.60;;;46.00;;
15055;SDS011;7626;42.674;23.284;2024-01-15T06:50:43;74.00;;;43.30;;
15055;SDS011;7626;42.674;23.284;2024-01-15T06:53:11;70.70;;;44.37;;
15055;SDS011;7626;42.674;23.284;2024-01-15T06:55:38;86.07;;;47.17;;
15055;SDS011;7626;42.674;23.284;2024-01-15T06:58:06;73.07;;;44.80;;
15055;SDS011;7626;42.674;23.284;2024-01-15T07:00:33;74.67;;;42.60;;
15055;SDS011;7626;42.674;23.284;2024-01-15T07:03:00;66.40;;;41.23;;
15055;SDS011;7626;42.674;23.284;2024-01-15T07:05:27;74.30;;;41.67;;
15055;SDS011;7626;42.674;23.284;2024-01-15T07:07:55;69.70;;;42.33;;
15055;SDS011;7626;42.674;23.284;2024-01-15T07:10:22;113.37;;;43.83;;
15055;SDS011;7626;42.674;23.284;2024-01-15T07:12:49;78.13;;;42.60;;
15055;SDS011;7626;42.674;23.284;2024-01-15T07:15:17;92.37;;;42.27;;
15055;SDS011;7626;42.674;23.284;2024-01-15T07:17:44;83.80;;;42.77;;
15055;SDS011;7626;42.674;23.284;2024-01-15T07:20:11;80.37;;;40.53;;
15055;SDS011;7626;42.674;23.284;2024-01-15T07:22:38;82.23;;;41.17;;
15055;SDS011;7626;42.674;23.284;2024-01-15T07:25:05;86.37;;;40.23;;
15055;SDS011;7626;42.674;23.284;2024-01-15T07:27:33;82.90;;;40.77;;
15055;SDS011;7626;42.674;23.284;2024-01-15T07:29:59;70.77;;;39.77;;
15055;SDS011;7626;42.674;23.284;2024-01-15T07:32:30;69.97;;;39.07;;
15055;SDS011;7626;42.674;23.284;2024-01-15T07:34:57;63.03;;;37.20;;
15055;SDS011;7626;42.674;23.284;2024-01-15T07:37:25;64.73;;;37.03;;
15055;SDS011;7626;42.674;23.284;2024-01-15T07:39:52;71.00;;;38.90;;
15055;SDS011;7626;42.674;23.284;2024-01-15T07:42:19;66.87;;;37.33;;
15055;SDS011;7626;42.674;23.284;2024-01-15T07:44:46;60.17;;;38.57;;
15055;SDS011;7626;42.674;23.284;2024-01-15T07:47:13;60.20;;;36.47;;
15055;SDS011;7626;42.674;23.284;2024-01-15T07:49:41;60.83;;;38.63;;
15055;SDS011;7626;42.674;23.284;2024-01-15T07:52:09;62.73;;;37.20;;
15055;SDS011;7626;42.674;23.284;2024-01-15T07:54:38;62.60;;;37.23;;
15055;SDS011;7626;42.674;23.284;2024-01-15T07:57:05;62.17;;;37.33;;
15055;SDS011;7626;42.674;23.284;2024-01-15T07:59:32;58.07;;;35.50;;
15055;SDS011;7626;42.674;23.284;2024-01-15T08:01:59;53.37;;;35.17;;
15055;SDS011;7626;42.674;23.284;2024-01-15T08:04:26;59.67;;;36.60;;
15055;SDS011;7626;42.674;23.284;2024-01-15T08:06:54;54.53;;;35.37;;
15055;SDS011;7626;42.674;23.284;2024-01-15T08:09:22;55.93;;;36.83;;
15055;SDS011;7626;42.674;23.284;2024-01-15T08:11:49;54.17;;;35.60;;
15055;SDS011;7626;42.674;23.284;2024-01-15T08:14:16;53.33;;;34.90;;
15055;SDS011;7626;42.674;23.284;2024-01-15T08:16:42;56.10;;;35.07;;
15055;SDS011;7626;42.674;23.284;2024-01-15T08:19:09;53.27;;;35.07;;
15055;SDS011;7626;42.674;23.284;2024-01-15T08:21:36;51.47;;;35.20;;
15055;SDS011;7626;42.674;23.284;2024-01-15T08:24:05;51.50;;;35.53;;
15055;SDS011;7626;42.674;23.284;2024-01-15T08:26:32;55.23;;;35.80;;
15055;SDS011;7626;42.674;23.284;2024-01-15T08:28:59;56.47;;;35.83;;
15055;SDS011;7626;42.674;23.284;2024-01-15T08:31:26;55.57;;;36.00;;
15055;SDS011;7626;42.674;23.284;2024-01-15T08:33:53;52.23;;;35.13;;
15055;SDS011;7626;42.674;23.284;2024-01-15T08:36:21;54.67;;;33.73;;
15055;SDS011;7626;42.674;23.284;2024-01-15T08:38:49;51.43;;;34.10;;
15055;SDS011;7626;42.674;23.284;2024-01-15T08:41:17;57.07;;;34.83;;
15055;SDS011;7626;42.674;23.284;2024-01-15T08:43:44;53.30;;;34.20;;
15055;SDS011;7626;42.674;23.284;2024-01-15T08:46:12;60.30;;;34.57;;
15055;SDS011;7626;42.674;23.284;2024-01-15T08:48:39;54.40;;;32.93;;
15055;SDS011;7626;42.674;23.284;2024-01-15T08:51:05;54.73;;;32.60;;
15055;SDS011;7626;42.674;23.284;2024-01-15T08:53:33;52.90;;;30.17;;
15055;SDS011;7626;42.674;23.284;2024-01-15T08:56:00;48.20;;;29.17;;
15055;SDS011;7626;42.674;23.284;2024-01-15T08:58:28;53.63;;;30.93;;
15055;SDS011;7626;42.674;23.284;2024-01-15T09:00:55;88.20;;;45.57;;
15055;SDS011;7626;42.674;23.284;2024-01-15T09:03:22;65.47;;;36.80;;
15055;SDS011;7626;42.674;23.284;2024-01-15T09:05:49;83.27;;;38.37;;
15055;SDS011;7626;42.674;23.284;2024-01-15T09:08:16;71.30;;;35.67;;
15055;SDS011;7626;42.674;23.284;2024-01-15T09:10:43;56.03;;;32.77;;
15055;SDS011;7626;42.674;23.284;2024-01-15T09:13:11;52.40;;;30.53;;
15055;SDS011;7626;42.674;23.284;2024-01-15T09:15:39;52.67;;;30.20;;
15055;SDS011;7626;42.674;23.284;2024-01-15T09:18:06;48.27;;;29.13;;
15055;SDS011;7626;42.674;23.284;2024-01-15T09:20:33;53.37;;;29.07;;
15055;SDS011;7626;42.674;23.284;2024-01-15T09:23:00;43.93;;;28.10;;
15055;SDS011;7626;42.674;23.284;2024-01-15T09:25:27;50.33;;;27.93;;
15055;SDS011;7626;42.674;23.284;2024-01-15T09:27:54;48.30;;;29.90;;
15055;SDS011;7626;42.674;23.284;2024-01-15T09:30:21;50.53;;;29.17;;
15055;SDS011;7626;42.674;23.284;2024-01-15T09:32:49;50.63;;;28.93;;
15055;SDS011;7626;42.674;23.284;2024-01-15T09:35:16;46.53;;;28.33;;
15055;SDS011;7626;42.674;23.284;2024-01-15T09:37:43;48.73;;;29.20;;
15055;SDS011;7626;42.674;23.284;2024-01-15T09:40:12;47.90;;;30.17;;
15055;SDS011;7626;42.674;23.284;2024-01-15T09:42:40;48.77;;;31.67;;
15055;SDS011;7626;42.674;23.284;2024-01-15T09:45:08;52.33;;;31.57;;
15055;SDS011;7626;42.674;23.284;2024-01-15T09:47:36;50.30;;;33.33;;
15055;SDS011;7626;42.674;23.284;2024-01-15T09:50:05;50.27;;;33.40;;
15055;SDS011;7626;42.674;23.284;2024-01-15T09:52:33;48.93;;;32.83;;
15055;SDS011;7626;42.674;23.284;2024-01-15T09:55:02;48.80;;;32.87;;
15055;SDS011;7626;42.674;23.284;2024-01-15T09:57:30;50.67;;;32.60;;
15055;SDS011;7626;42.674;23.284;2024-01-15T09:59:58;43.77;;;32.20;;
15055;SDS011;7626;42.674;23.284;2024-01-15T10:02:29;46.93;;;30.80;;
15055;SDS011;7626;42.674;23.284;2024-01-15T10:04:57;46.93;;;31.50;;
15055;SDS011;7626;42.674;23.284;2024-01-15T10:07:25;47.80;;;32.27;;
15055;SDS011;7626;42.674;23.284;2024-01-15T10:09:53;48.00;;;31.87;;
15055;SDS011;7626;42.674;23.284;2024-01-15T10:12:20;49.67;;;32.67;;
15055;SDS011;7626;42.674;23.284;2024-01-15T10:14:48;44.67;;;32.03;;
15055;SDS011;7626;42.674;23.284;2024-01-15T10:17:16;52.87;;;32.87;;
15055;SDS011;7626;42.674;23.284;2024-01-15T10:19:44;48.00;;;32.67;;
15055;SDS011;7626;42.674;23.284;2024-01-15T10:22:12;46.40;;;33.17;;
15055;SDS011;7626;42.674;23.284;2024-01-15T10:24:41;51.23;;;34.47;;
15055;SDS011;7626;42.674;23.284;2024-01-15T10:27:09;49.47;;;35.77;;
15055;SDS011;7626;42.674;23.284;2024-01-15T10:29:36;46.90;;;33.83;;
15055;SDS011;7626;42.674;23.284;2024-01-15T10:32:06;53.33;;;33.60;;
15055;SDS011;7626;42.674;23.284;2024-01-15T10:34:33;47.80;;;32.87;;
15055;SDS011;7626;42.674;23.284;2024-01-15T10:37:03;49.27;;;34.73;;
15055;SDS011;7626;42.674;23.284;2024-01-15T10:39:30;51.53;;;33.90;;
15055;SDS011;7626;42.674;23.284;2024-01-15T10:41:59;47.23;;;33.87;;
15055;SDS011;7626;42.674;23.284;2024-01-15T10:44:26;49.90;;;34.63;;
15055;SDS011;7626;42.674;23.284;2024-01-15T10:46:54;50.50;;;34.83;;
15055;SDS011;7626;42.674;23.284;2024-01-15T10:49:23;49.37;;;33.20;;
15055;SDS011;7626;42.674;23.284;2024-01-15T10:51:52;47.70;;;32.00;;
15055;SDS011;7626;42.674;23.284;2024-01-15T10:54:19;44.30;;;30.83;;
15055;SDS011;7626;42.674;23.284;2024-01-15T10:56:49;46.03;;;30.57;;
15055;SDS011;7626;42.674;23.284;2024-01-15T10:59:20;40.63;;;29.33;;
15055;SDS011;7626;42.674;23.284;2024-01-15T11:01:48;39.93;;;29.23;;
15055;SDS011;7626;42.674;23.284;2024-01-15T11:04:15;43.67;;;28.13;;
15055;SDS011;7626;42.674;23.284;2024-01-15T11:06:44;43.33;;;28.83;;
15055;SDS011;7626;42.674;23.284;2024-01-15T11:09:12;40.80;;;27.37;;
15055;SDS011;7626;42.674;23.284;2024-01-15T11:11:40;36.83;;;26.80;;
15055;SDS011;7626;42.674;23.284;2024-01-15T11:14:10;39.90;;;26.83;;
15055;SDS011;7626;42.674;23.284;2024-01-15T11:19:24;36.67;;;25.60;;
15055;SDS011;7626;42.674;23.284;2024-01-15T11:21:52;34.53;;;24.23;;
15055;SDS011;7626;42.674;23.284;2024-01-15T11:24:33;34.87;;;23.23;;
15055;SDS011;7626;42.674;23.284;2024-01-15T11:27:01;35.50;;;23.10;;
15055;SDS011;7626;42.674;23.284;2024-01-15T11:29:29;34.07;;;21.87;;
15055;SDS011;7626;42.674;23.284;2024-01-15T11:32:05;31.10;;;21.03;;
15055;SDS011;7626;42.674;23.284;2024-01-15T11:40:37;43.80;;;21.60;;
15055;SDS011;7626;42.674;23.284;2024-01-15T11:43:04;37.60;;;19.93;;
15055;SDS011;7626;42.674;23.284;2024-01-15T11:45:32;30.30;;;19.30;;
15055;SDS011;7626;42.674;23.284;2024-01-15T11:48:10;32.13;;;19.67;;
15055;SDS011;7626;42.674;23.284;2024-01-15T11:50:42;27.20;;;18.47;;
15055;SDS011;7626;42.674;23.284;2024-01-15T11:53:18;32.47;;;19.53;;
15055;SDS011;7626;42.674;23.284;2024-01-15T11:55:53;35.10;;;20.10;;
15055;SDS011;7626;42.674;23.284;2024-01-15T11:58:24;30.13;;;19.13;;
15055;SDS011;7626;42.674;23.284;2024-01-15T12:00:51;29.30;;;17.60;;
15055;SDS011;7626;42.674;23.284;2024-01-15T12:03:21;29.30;;;18.57;;
15055;SDS011;7626;42.674;23.284;2024-01-15T12:05:49;32.33;;;18.87;;
15055;SDS011;7626;42.674;23.284;2024-01-15T12:08:20;31.13;;;18.77;;
15055;SDS011;7626;42.674;23.284;2024-01-15T12:10:47;30.77;;;18.53;;
15055;SDS011;7626;42.674;23.284;2024-01-15T12:13:15;28.67;;;18.33;;
15055;SDS011;7626;42.674;23.284;2024-01-15T12:15:43;31.10;;;17.97;;
15055;SDS011;7626;42.674;23.284;2024-01-15T12:18:11;32.83;;;17.70;;
15055;SDS011;7626;42.674;23.284;2024-01-15T15:27:18;39.37;;;20.50;;
15055;SDS011;7626;42.674;23.284;2024-01-15T15:29:46;29.63;;;20.90;;
15055;SDS011;7626;42.674;23.284;2024-01-15T15:32:17;31.43;;;20.93;;
15055;SDS011;7626;42.674;23.284;2024-01-15T15:34:45;29.63;;;20.50;;
15055;SDS011;7626;42.674;23.284;2024-01-15T15:37:13;29.37;;;20.30;;
15055;SDS011;7626;42.674;23.284;2024-01-15T15:39:43;32.37;;;19.70;;
15055;SDS011;7626;42.674;23.284;2024-01-15T15:42:15;14.17;;;9.43;;
15055;SDS011;7626;42.674;23.284;2024-01-15T15:44:46;30.07;;;18.47;;
15055;SDS011;7626;42.674;23.284;2024-01-15T15:47:16;33.23;;;20.63;;
15055;SDS011;7626;42.674;23.284;2024-01-15T15:49:45;30.10;;;18.93;;
15055;SDS011;7626;42.674;23.284;2024-01-15T15:52:12;33.00;;;19.80;;
15055;SDS011;7626;42.674;23.284;2024-01-15T15:54:40;31.63;;;20.43;;
15055;SDS011;7626;42.674;23.284;2024-01-15T15:57:07;32.43;;;20.83;;
15055;SDS011;7626;42.674;23.284;2024-01-15T15:59:36;29.00;;;19.50;;
15055;SDS011;7626;42.674;23.284;2024-01-15T16:02:05;31.13;;;20.30;;
15055;SDS011;7626;42.674;23.284;2024-01-15T16:04:33;31.10;;;21.30;;
15055;SDS011;7626;42.674;23.284;2024-01-15T16:07:00;30.93;;;20.27;;
15055;SDS011;7626;42.674;23.284;2024-01-15T16:09:28;34.97;;;21.30;;
15055;SDS011;7626;42.674;23.284;2024-01-15T16:11:57;28.03;;;20.23;;
15055;SDS011;7626;42.674;23.284;2024-01-15T16:14:38;34.80;;;22.13;;
15055;SDS011;7626;42.674;23.284;2024-01-15T16:17:08;30.43;;;21.47;;
15055;SDS011;7626;42.674;23.284;2024-01-15T16:19:36;34.97;;;21.90;;
15055;SDS011;7626;42.674;23.284;2024-01-15T16:22:04;35.50;;;23.17;;
15055;SDS011;7626;42.674;23.284;2024-01-15T16:24:35;30.60;;;21.67;;
15055;SDS011;7626;42.674;23.284;2024-01-15T16:27:04;32.40;;;21.83;;
15055;SDS011;7626;42.674;23.284;2024-01-15T16:29:32;32.63;;;22.93;;
15055;SDS011;7626;42.674;23.284;2024-01-15T16:32:00;36.33;;;23.20;;
15055;SDS011;7626;42.674;23.284;2024-01-15T16:34:28;33.23;;;21.53;;
15055;SDS011;7626;42.674;23.284;2024-01-15T16:36:56;33.13;;;21.67;;
15055;SDS011;7626;42.674;23.284;2024-01-15T16:39:23;31.03;;;22.20;;
15055;SDS011;7626;42.674;23.284;2024-01-15T16:41:50;34.33;;;22.53;;
15055;SDS011;7626;42.674;23.284;2024-01-15T16:44:18;35.40;;;23.67;;
15055;SDS011;7626;42.674;23.284;2024-01-15T16:46:46;35.17;;;23.30;;
15055;SDS011;7626;42.674;23.284;2024-01-15T16:49:14;36.03;;;24.33;;
15055;SDS011;7626;42.674;23.284;2024-01-15T16:51:43;34.57;;;23.43;;
15055;SDS011;7626;42.674;23.284;2024-01-15T16:54:12;40.30;;;24.80;;
15055;SDS011;7626;42.674;23.284;2024-01-15T16:56:40;40.20;;;27.27;;
15055;SDS011;7626;42.674;23.284;2024-01-15T16:59:10;41.70;;;27.20;;
15055;SDS011;7626;42.674;23.284;2024-01-15T17:01:38;43.20;;;29.03;;
15055;SDS011;7626;42.674;23.284;2024-01-15T17:04:07;45.17;;;29.73;;
15055;SDS011;7626;42.674;23.284;2024-01-15T17:06:36;47.47;;;30.50;;
15055;SDS011;7626;42.674;23.284;2024-01-15T17:09:05;46.93;;;31.50;;
15055;SDS011;7626;42.674;23.284;2024-01-15T17:11:36;46.27;;;31.60;;
15055;SDS011;7626;42.674;23.284;2024-01-15T17:14:04;54.53;;;32.80;;
15055;SDS011;7626;42.674;23.284;2024-01-15T17:16:32;53.60;;;35.13;;
15055;SDS011;7626;42.674;23.284;2024-01-15T17:19:00;49.90;;;33.97;;
15055;SDS011;7626;42.674;23.284;2024-01-15T17:21:27;50.97;;;34.70;;
15055;SDS011;7626;42.674;23.284;2024-01-15T17:23:56;56.23;;;36.20;;
15055;SDS011;7626;42.674;23.284;2024-01-15T17:26:27;50.67;;;35.63;;
15055;SDS011;7626;42.674;23.284;2024-01-15T17:28:56;54.27;;;35.47;;
15055;SDS011;7626;42.674;23.284;2024-01-15T17:31:23;50.90;;;35.97;;
15055;SDS011;7626;42.674;23.284;2024-01-15T17:33:51;50.80;;;35.50;;
15055;SDS011;7626;42.674;23.284;2024-01-15T17:36:18;53.53;;;35.33;;
15055;SDS011;7626;42.674;23.284;2024-01-15T17:38:48;49.80;;;34.03;;